»·PEaware :: JBU186 KLAS-KSAN

JBU186 :: KLAS-KSAN

FLIGHT INFORMATION

Flight Status: Arrived
Operator:
JetBlue Airways
More flights by this operator :: More flights under this callsign
Pilot: Josh G. (4619)
Aircraft: AIRBUS A320
(A320)
More flights by this aircraft type
Origin: KLAS McCarran Intl
United States
Destination: KSAN San Diego Intl-Lindbergh
United States
More flights between these airports :: More routes between these airports
Route: BOACH8 LVELL LUCKI1
File this flight plan on PilotEdge
Remarks: Student Pilot
Altitude:
(Current/Filed)
28,000ft
Speed:
(Current/Filed)
450kts
Departed: 03-Oct-18 07:14 PM
Arrived: 03-Oct-18 08:06 PM
Distance/Time
Traveled:
225nm/0:52
Distance/Time
To Go:
Arrived

Flight Plot

Page will automatically refresh every two minutes.

Flight plan parsing failed; only flown route is shown


Map Options




Map Legend


Flown Route
Filed Route
Departure Airport
Arrival Airport
Navaid (VOR, NDB)
Fix

Horizontal Profiles

Position Reports

Time Latitude Longitude Heading Altitude Ground
Speed
03-Oct-18 18:31 36.080446 -115.138867 345 2121ft 0kts
03-Oct-18 18:32 36.080446 -115.138867 345 2121ft 0kts
03-Oct-18 18:33 36.080446 -115.138867 345 2121ft 0kts
03-Oct-18 18:34 36.080446 -115.138867 345 2121ft 0kts
03-Oct-18 18:35 36.080446 -115.138867 345 2121ft 0kts
03-Oct-18 18:36 36.080446 -115.138867 345 2121ft 0kts
03-Oct-18 18:37 36.080446 -115.138867 345 2121ft 0kts
03-Oct-18 18:38 36.080446 -115.138867 345 2121ft 0kts
03-Oct-18 18:39 36.080446 -115.138867 345 2121ft 0kts
03-Oct-18 18:40 36.080446 -115.138867 345 2121ft 0kts
03-Oct-18 18:41 36.080446 -115.138867 345 2121ft 0kts
03-Oct-18 18:42 36.080446 -115.138867 345 2121ft 0kts
03-Oct-18 18:43 36.080446 -115.138867 345 2121ft 0kts
03-Oct-18 18:44 36.080446 -115.138867 345 2121ft 0kts
03-Oct-18 18:45 36.080446 -115.138867 345 2121ft 0kts
03-Oct-18 18:46 36.080446 -115.138867 345 2121ft 0kts
03-Oct-18 18:47 36.080446 -115.138867 345 2121ft 0kts
03-Oct-18 18:48 36.080446 -115.138867 345 2121ft 0kts
03-Oct-18 18:49 36.080446 -115.138867 345 2121ft 0kts
03-Oct-18 18:50 36.080446 -115.138867 345 2121ft 0kts
03-Oct-18 18:51 36.080446 -115.138867 345 2121ft 0kts
03-Oct-18 18:52 36.080446 -115.138867 345 2121ft 0kts
03-Oct-18 18:53 36.080446 -115.138867 345 2121ft 0kts
03-Oct-18 18:54 36.080446 -115.138867 345 2121ft 0kts
03-Oct-18 18:55 36.080446 -115.138867 345 2121ft 0kts
03-Oct-18 18:56 36.080446 -115.138867 345 2121ft 0kts
03-Oct-18 18:57 36.080446 -115.138867 345 2121ft 0kts
03-Oct-18 18:58 36.080446 -115.138867 345 2121ft 0kts
03-Oct-18 18:59 36.080446 -115.138867 345 2121ft 0kts
03-Oct-18 19:00 36.080446 -115.138867 345 2121ft 0kts
03-Oct-18 19:01 36.080446 -115.138867 345 2121ft 0kts
03-Oct-18 19:02 36.080446 -115.138867 345 2121ft 0kts
03-Oct-18 19:03 36.080446 -115.138867 345 2121ft 0kts
03-Oct-18 19:04 36.080446 -115.138867 345 2121ft 0kts
03-Oct-18 19:05 36.080364 -115.138841 345 2121ft 2kts
03-Oct-18 19:06 36.079905 -115.138526 287 2121ft 2kts
03-Oct-18 19:07 36.080005 -115.138087 226 2121ft 0kts
03-Oct-18 19:08 36.080005 -115.138087 226 2121ft 0kts
03-Oct-18 19:09 36.080005 -115.138087 226 2121ft 0kts
03-Oct-18 19:10 36.078980 -115.139352 224 2121ft 0kts
03-Oct-18 19:11 36.078244 -115.138358 89 2121ft 17kts
03-Oct-18 19:12 36.078242 -115.130126 89 2121ft 26kts
03-Oct-18 19:13 36.077775 -115.121971 129 2121ft 16kts
03-Oct-18 19:14 36.077423 -115.121489 140 2121ft 0kts
03-Oct-18 19:15 36.077351 -115.121430 151 2121ft 3kts
03-Oct-18 19:16 36.076349 -115.126940 269 2121ft 88kts
03-Oct-18 19:17 36.077317 -115.180761 267 3816ft 185kts
03-Oct-18 19:18 36.066861 -115.250609 228 5782ft 246kts
03-Oct-18 19:19 36.001243 -115.288226 200 8560ft 275kts
03-Oct-18 19:20 35.925266 -115.307454 185 10968ft 311kts
03-Oct-18 19:21 35.839820 -115.313355 175 12435ft 355kts
03-Oct-18 19:22 35.746686 -115.302567 176 14973ft 358kts
03-Oct-18 19:23 35.657624 -115.295510 183 17119ft 362kts
03-Oct-18 19:24 35.562852 -115.299471 185 19156ft 365kts
03-Oct-18 19:25 35.467617 -115.328499 194 21009ft 369kts
03-Oct-18 19:26 35.370338 -115.359920 194 22705ft 373kts
03-Oct-18 19:27 35.278592 -115.389475 194 24122ft 376kts
03-Oct-18 19:28 35.177595 -115.421930 194 25531ft 380kts
03-Oct-18 19:29 35.075193 -115.454754 194 26762ft 384kts
03-Oct-18 19:30 34.973171 -115.487356 196 27894ft 377kts
03-Oct-18 19:31 34.881854 -115.516477 197 27929ft 377kts
03-Oct-18 19:32 34.783369 -115.547820 197 27945ft 377kts
03-Oct-18 19:33 34.682977 -115.579680 197 27977ft 377kts
03-Oct-18 19:34 34.582731 -115.611417 197 28020ft 376kts
03-Oct-18 19:35 34.483814 -115.642653 197 28017ft 375kts
03-Oct-18 19:36 34.394670 -115.670741 196 28014ft 376kts
03-Oct-18 19:37 34.301080 -115.700162 197 28021ft 376kts
03-Oct-18 19:38 34.202147 -115.731187 196 28024ft 376kts
03-Oct-18 19:39 34.102366 -115.762405 197 28021ft 376kts
03-Oct-18 19:40 34.003081 -115.793391 196 27939ft 375kts
03-Oct-18 19:41 33.903779 -115.824305 196 27836ft 375kts
03-Oct-18 19:42 33.821431 -115.849822 197 27279ft 344kts
03-Oct-18 19:43 33.733733 -115.877027 197 26527ft 337kts
03-Oct-18 19:44 33.647246 -115.903817 196 25769ft 335kts
03-Oct-18 19:45 33.561411 -115.930320 196 25002ft 333kts
03-Oct-18 19:46 33.489802 -115.988369 230 24029ft 330kts
03-Oct-18 19:47 33.440513 -116.073335 230 22526ft 312kts
03-Oct-18 19:48 33.393802 -116.153488 230 21078ft 303kts
03-Oct-18 19:49 33.347849 -116.232320 229 19619ft 301kts
03-Oct-18 19:50 33.282914 -116.282175 206 18178ft 292kts
03-Oct-18 19:51 33.215526 -116.321592 206 16801ft 290kts
03-Oct-18 19:52 33.148554 -116.360761 206 15539ft 287kts
03-Oct-18 19:53 33.081613 -116.399854 206 14220ft 286kts
03-Oct-18 19:54 33.014229 -116.439211 207 12850ft 286kts
03-Oct-18 19:55 32.955763 -116.494568 219 11594ft 281kts
03-Oct-18 19:56 32.899985 -116.550807 220 10350ft 274kts
03-Oct-18 19:57 32.853632 -116.597458 221 9722ft 255kts
03-Oct-18 19:58 32.808215 -116.643185 222 8743ft 253kts
03-Oct-18 19:59 32.766922 -116.692623 242 7738ft 252kts
03-Oct-18 20:00 32.733478 -116.763429 241 6528ft 241kts
03-Oct-18 20:01 32.704694 -116.826730 251 5970ft 224kts
03-Oct-18 20:02 32.683920 -116.894196 251 4958ft 221kts
03-Oct-18 20:04 32.690192 -117.011141 285 3603ft 164kts
03-Oct-18 20:05 32.702592 -117.061998 285 2397ft 166kts
03-Oct-18 20:06 32.715229 -117.113891 286 1355ft 160kts
03-Oct-18 20:07 32.726607 -117.161298 286 431ft 144kts
03-Oct-18 20:08 32.735319 -117.197142 271 22ft 27kts
03-Oct-18 20:09 32.733909 -117.200477 260 20ft 1kts

Navigation Log

Ident Type
Flight plan parsing failed, navigation log unavailable